createdAt,value
2023-05-05T00:00:51.000Z,1025.33
2023-05-05T00:01:51.000Z,1025.28
2023-05-05T00:02:51.000Z,1025.29
2023-05-05T00:03:52.000Z,1025.29
2023-05-05T00:04:52.000Z,1025.28
2023-05-05T00:05:52.000Z,1025.27
2023-05-05T00:06:53.000Z,1025.3
2023-05-05T00:07:53.000Z,1025.28
2023-05-05T00:08:53.000Z,1025.26
2023-05-05T00:09:53.000Z,1025.26
2023-05-05T00:10:54.000Z,1025.31
2023-05-05T00:11:54.000Z,1025.23
2023-05-05T00:12:54.000Z,1025.21
2023-05-05T00:13:54.000Z,1025.25
2023-05-05T00:14:55.000Z,1025.22
2023-05-05T00:15:55.000Z,1025.2
2023-05-05T00:16:55.000Z,1025.2
2023-05-05T00:17:55.000Z,1025.2
2023-05-05T00:18:56.000Z,1025.18
2023-05-05T00:19:56.000Z,1025.18
2023-05-05T00:20:56.000Z,1025.16
2023-05-05T00:21:57.000Z,1025.18
2023-05-05T00:22:57.000Z,1025.15
2023-05-05T00:23:57.000Z,1025.19
2023-05-05T00:24:57.000Z,1025.14
2023-05-05T00:25:58.000Z,1025.14
2023-05-05T00:26:58.000Z,1025.16
2023-05-05T00:27:58.000Z,1025.15
2023-05-05T00:28:58.000Z,1025.14
2023-05-05T00:29:59.000Z,1025.16
2023-05-05T00:30:59.000Z,1025.16
2023-05-05T00:31:59.000Z,1025.14
2023-05-05T00:33:00.000Z,1025.14
2023-05-05T00:34:00.000Z,1025.08
2023-05-05T00:35:00.000Z,1025.13
2023-05-05T00:36:00.000Z,1025.15
2023-05-05T00:37:01.000Z,1025.13
2023-05-05T00:38:01.000Z,1025.13
2023-05-05T00:39:01.000Z,1025.08
2023-05-05T00:40:01.000Z,1025.1
2023-05-05T00:41:01.000Z,1025.11
2023-05-05T00:42:02.000Z,1025.1
2023-05-05T00:43:02.000Z,1025.03
2023-05-05T00:44:02.000Z,1025.05
2023-05-05T00:45:02.000Z,1025.11
2023-05-05T00:46:03.000Z,1025.05
2023-05-05T00:47:03.000Z,1025.04
2023-05-05T00:48:03.000Z,1025.09
2023-05-05T00:49:04.000Z,1025.05
2023-05-05T00:50:04.000Z,1025.07
2023-05-05T00:51:04.000Z,1025.04
2023-05-05T00:52:04.000Z,1025.04
2023-05-05T00:53:05.000Z,1024.95
2023-05-05T00:54:05.000Z,1024.98
2023-05-05T00:55:05.000Z,1024.98
2023-05-05T00:56:05.000Z,1024.96
2023-05-05T00:57:06.000Z,1025.02
2023-05-05T00:58:06.000Z,1024.93
2023-05-05T00:59:06.000Z,1024.92
2023-05-05T01:00:06.000Z,1024.95
2023-05-05T01:01:07.000Z,1024.88
2023-05-05T01:02:07.000Z,1024.9
2023-05-05T01:03:07.000Z,1024.9
2023-05-05T01:04:08.000Z,1024.93
2023-05-05T01:05:08.000Z,1024.92
2023-05-05T01:06:08.000Z,1024.9
2023-05-05T01:07:08.000Z,1024.86
2023-05-05T01:08:08.000Z,1024.88
2023-05-05T01:09:09.000Z,1024.86
2023-05-05T01:10:09.000Z,1024.91
2023-05-05T01:11:09.000Z,1024.88
2023-05-05T01:12:09.000Z,1024.93
2023-05-05T01:13:10.000Z,1024.89
2023-05-05T01:14:10.000Z,1024.85
2023-05-05T01:15:10.000Z,1024.87
2023-05-05T01:16:11.000Z,1024.85
2023-05-05T01:17:11.000Z,1024.85
2023-05-05T01:18:11.000Z,1024.8
2023-05-05T01:19:11.000Z,1024.82
2023-05-05T01:20:12.000Z,1024.78
2023-05-05T01:21:12.000Z,1024.78
2023-05-05T01:22:12.000Z,1024.76
2023-05-05T01:23:12.000Z,1024.76
2023-05-05T01:24:13.000Z,1024.72
2023-05-05T01:25:13.000Z,1024.72
2023-05-05T01:26:13.000Z,1024.75
2023-05-05T01:27:13.000Z,1024.75
2023-05-05T01:28:14.000Z,1024.7
2023-05-05T01:29:14.000Z,1024.71
2023-05-05T01:30:14.000Z,1024.69
2023-05-05T01:31:15.000Z,1024.69
2023-05-05T01:32:15.000Z,1024.67
2023-05-05T01:33:15.000Z,1024.67
2023-05-05T01:34:15.000Z,1024.69
2023-05-05T01:35:16.000Z,1024.66
2023-05-05T01:36:16.000Z,1024.63
2023-05-05T01:37:16.000Z,1024.66
2023-05-05T01:38:16.000Z,1024.62
2023-05-05T01:39:17.000Z,1024.64
2023-05-05T01:40:17.000Z,1024.64
2023-05-05T01:41:17.000Z,1024.6
2023-05-05T01:42:17.000Z,1024.66
2023-05-05T01:43:18.000Z,1024.6
2023-05-05T01:44:18.000Z,1024.62
2023-05-05T01:45:18.000Z,1024.65
2023-05-05T01:46:19.000Z,1024.64
2023-05-05T01:47:19.000Z,1024.69
2023-05-05T01:48:19.000Z,1024.68
2023-05-05T01:49:19.000Z,1024.67
2023-05-05T01:50:19.000Z,1024.73
2023-05-05T01:51:20.000Z,1024.78
2023-05-05T01:52:20.000Z,1024.73
2023-05-05T01:53:20.000Z,1024.77
2023-05-05T01:54:21.000Z,1024.77
2023-05-05T01:55:21.000Z,1024.77
2023-05-05T01:56:21.000Z,1024.79
2023-05-05T01:57:21.000Z,1024.8
2023-05-05T01:58:22.000Z,1024.83
2023-05-05T01:59:22.000Z,1024.81
2023-05-05T02:00:22.000Z,1024.84
2023-05-05T02:01:22.000Z,1024.89
2023-05-05T02:02:23.000Z,1024.83
2023-05-05T02:03:23.000Z,1024.85
2023-05-05T02:04:23.000Z,1024.82
2023-05-05T02:05:23.000Z,1024.83
2023-05-05T02:06:24.000Z,1024.84
2023-05-05T02:07:24.000Z,1024.85
2023-05-05T02:08:24.000Z,1024.79
2023-05-05T02:09:25.000Z,1024.8
2023-05-05T02:10:25.000Z,1024.82
2023-05-05T02:11:25.000Z,1024.79
2023-05-05T02:12:25.000Z,1024.83
2023-05-05T02:13:26.000Z,1024.77
2023-05-05T02:14:26.000Z,1024.76
2023-05-05T02:15:26.000Z,1024.77
2023-05-05T02:16:26.000Z,1024.75
2023-05-05T02:17:27.000Z,1024.74
2023-05-05T02:18:27.000Z,1024.76
2023-05-05T02:19:27.000Z,1024.74
2023-05-05T02:20:27.000Z,1024.76
2023-05-05T02:21:28.000Z,1024.78
2023-05-05T02:22:28.000Z,1024.79
2023-05-05T02:23:28.000Z,1024.76
2023-05-05T02:24:28.000Z,1024.76
2023-05-05T02:25:29.000Z,1024.78
2023-05-05T02:26:29.000Z,1024.76
2023-05-05T02:27:29.000Z,1024.81
2023-05-05T02:28:29.000Z,1024.83
2023-05-05T02:29:30.000Z,1024.85
2023-05-05T02:30:30.000Z,1024.81
2023-05-05T02:31:30.000Z,1024.83
2023-05-05T02:32:30.000Z,1024.8
2023-05-05T02:33:31.000Z,1024.82
2023-05-05T02:34:31.000Z,1024.81
2023-05-05T02:35:31.000Z,1024.85
2023-05-05T02:36:32.000Z,1024.82
2023-05-05T02:37:32.000Z,1024.86
2023-05-05T02:38:32.000Z,1024.86
2023-05-05T02:39:32.000Z,1024.79
2023-05-05T02:40:33.000Z,1024.8
2023-05-05T02:41:33.000Z,1024.84
2023-05-05T02:42:33.000Z,1024.84
2023-05-05T02:43:33.000Z,1024.82
2023-05-05T02:44:34.000Z,1024.81
2023-05-05T02:45:34.000Z,1024.86
2023-05-05T02:46:34.000Z,1024.84
2023-05-05T02:47:34.000Z,1024.84
2023-05-05T02:48:35.000Z,1024.83
2023-05-05T02:49:35.000Z,1024.8
2023-05-05T02:50:35.000Z,1024.85
2023-05-05T02:51:35.000Z,1024.77
2023-05-05T02:52:36.000Z,1024.78
2023-05-05T02:53:36.000Z,1024.73
2023-05-05T02:54:36.000Z,1024.73
2023-05-05T02:55:36.000Z,1024.75
2023-05-05T02:56:37.000Z,1024.71
2023-05-05T02:57:37.000Z,1024.73
2023-05-05T02:58:37.000Z,1024.73
2023-05-05T02:59:37.000Z,1024.71
2023-05-05T03:00:38.000Z,1024.71
2023-05-05T03:01:38.000Z,1024.68
2023-05-05T03:02:38.000Z,1024.75
2023-05-05T03:03:39.000Z,1024.75
2023-05-05T03:04:39.000Z,1024.76
2023-05-05T03:05:39.000Z,1024.75
2023-05-05T03:06:39.000Z,1024.76
2023-05-05T03:07:40.000Z,1024.74
2023-05-05T03:08:40.000Z,1024.71
2023-05-05T03:09:40.000Z,1024.71
2023-05-05T03:10:40.000Z,1024.71
2023-05-05T03:11:41.000Z,1024.67
2023-05-05T03:12:41.000Z,1024.65
2023-05-05T03:13:41.000Z,1024.56
2023-05-05T03:14:41.000Z,1024.62
2023-05-05T03:15:42.000Z,1024.6
2023-05-05T03:16:42.000Z,1024.58
2023-05-05T03:17:42.000Z,1024.61
2023-05-05T03:18:42.000Z,1024.59
2023-05-05T03:19:43.000Z,1024.57
2023-05-05T03:20:43.000Z,1024.56
2023-05-05T03:21:43.000Z,1024.56
2023-05-05T03:22:43.000Z,1024.6
2023-05-05T03:23:44.000Z,1024.58
2023-05-05T03:24:44.000Z,1024.58
2023-05-05T03:25:44.000Z,1024.58
2023-05-05T03:26:44.000Z,1024.58
2023-05-05T03:27:45.000Z,1024.54
2023-05-05T03:28:45.000Z,1024.57
2023-05-05T03:29:45.000Z,1024.55
2023-05-05T03:30:45.000Z,1024.52
2023-05-05T03:31:46.000Z,1024.55
2023-05-05T03:32:46.000Z,1024.57
2023-05-05T03:33:46.000Z,1024.56
2023-05-05T03:34:46.000Z,1024.51
2023-05-05T03:35:47.000Z,1024.49
2023-05-05T03:36:47.000Z,1024.55
2023-05-05T03:37:47.000Z,1024.51
2023-05-05T03:38:47.000Z,1024.54
2023-05-05T03:39:48.000Z,1024.56
2023-05-05T03:40:48.000Z,1024.54
2023-05-05T03:41:48.000Z,1024.56
2023-05-05T03:42:48.000Z,1024.57
2023-05-05T03:43:49.000Z,1024.59
2023-05-05T03:44:49.000Z,1024.59
2023-05-05T03:45:49.000Z,1024.6
2023-05-05T03:46:50.000Z,1024.59
2023-05-05T03:47:50.000Z,1024.61
2023-05-05T03:48:50.000Z,1024.56
2023-05-05T03:49:50.000Z,1024.6
2023-05-05T03:50:51.000Z,1024.61
2023-05-05T03:51:51.000Z,1024.57
2023-05-05T03:52:51.000Z,1024.61
2023-05-05T03:53:51.000Z,1024.62
2023-05-05T03:54:52.000Z,1024.66
2023-05-05T03:55:52.000Z,1024.64
2023-05-05T03:56:52.000Z,1024.67
2023-05-05T03:57:52.000Z,1024.69
2023-05-05T03:58:53.000Z,1024.72
2023-05-05T03:59:53.000Z,1024.69
2023-05-05T04:00:53.000Z,1024.69
2023-05-05T04:01:53.000Z,1024.72
2023-05-05T04:02:54.000Z,1024.73
2023-05-05T04:03:54.000Z,1024.7
2023-05-05T04:04:54.000Z,1024.69
2023-05-05T04:05:54.000Z,1024.68
2023-05-05T04:06:55.000Z,1024.72
2023-05-05T04:07:55.000Z,1024.7
2023-05-05T04:08:55.000Z,1024.7
2023-05-05T04:09:56.000Z,1024.7
2023-05-05T04:10:56.000Z,1024.75
2023-05-05T04:11:56.000Z,1024.78
2023-05-05T04:12:56.000Z,1024.78
2023-05-05T04:13:57.000Z,1024.82
2023-05-05T04:14:57.000Z,1024.78
2023-05-05T04:15:57.000Z,1024.74
2023-05-05T04:16:57.000Z,1024.75
2023-05-05T04:17:58.000Z,1024.78
2023-05-05T04:18:58.000Z,1024.74
2023-05-05T04:19:58.000Z,1024.79
2023-05-05T04:20:58.000Z,1024.76
2023-05-05T04:21:59.000Z,1024.76
2023-05-05T04:22:59.000Z,1024.74
2023-05-05T04:23:59.000Z,1024.8
2023-05-05T04:24:59.000Z,1024.79
2023-05-05T04:26:00.000Z,1024.79
2023-05-05T04:27:00.000Z,1024.83
2023-05-05T04:28:00.000Z,1024.79
2023-05-05T04:29:00.000Z,1024.84
2023-05-05T04:30:01.000Z,1024.81
2023-05-05T04:31:01.000Z,1024.76
2023-05-05T04:32:01.000Z,1024.79
2023-05-05T04:33:01.000Z,1024.75
2023-05-05T04:34:02.000Z,1024.78
2023-05-05T04:35:02.000Z,1024.7
2023-05-05T04:36:02.000Z,1024.76
2023-05-05T04:37:03.000Z,1024.79
2023-05-05T04:38:03.000Z,1024.81
2023-05-05T04:39:03.000Z,1024.76
2023-05-05T04:40:03.000Z,1024.77
2023-05-05T04:41:04.000Z,1024.77
2023-05-05T04:42:04.000Z,1024.78
2023-05-05T04:43:04.000Z,1024.79
2023-05-05T04:44:04.000Z,1024.8
2023-05-05T04:45:05.000Z,1024.78
2023-05-05T04:46:05.000Z,1024.75
2023-05-05T04:47:05.000Z,1024.72
2023-05-05T04:48:06.000Z,1024.79
2023-05-05T04:49:06.000Z,1024.78
2023-05-05T04:50:06.000Z,1024.78
2023-05-05T04:51:06.000Z,1024.75
2023-05-05T04:52:06.000Z,1024.8
2023-05-05T04:53:07.000Z,1024.81
2023-05-05T04:54:07.000Z,1024.82
2023-05-05T04:55:07.000Z,1024.77
2023-05-05T04:56:08.000Z,1024.86
2023-05-05T04:57:08.000Z,1024.87
2023-05-05T04:58:08.000Z,1024.86
2023-05-05T04:59:08.000Z,1024.84
2023-05-05T05:00:09.000Z,1024.83
2023-05-05T05:01:09.000Z,1024.83
2023-05-05T05:02:09.000Z,1024.89
2023-05-05T05:03:09.000Z,1024.89
2023-05-05T05:04:10.000Z,1024.88
2023-05-05T05:05:10.000Z,1024.9
2023-05-05T05:06:10.000Z,1024.9
2023-05-05T05:07:10.000Z,1024.85
2023-05-05T05:08:11.000Z,1024.86
2023-05-05T05:09:11.000Z,1024.84
2023-05-05T05:10:11.000Z,1024.8
2023-05-05T05:11:11.000Z,1024.84
2023-05-05T05:12:12.000Z,1024.8
2023-05-05T05:13:12.000Z,1024.81
2023-05-05T05:14:12.000Z,1024.78
2023-05-05T05:15:12.000Z,1024.79
2023-05-05T05:16:13.000Z,1024.82
2023-05-05T05:17:13.000Z,1024.8
2023-05-05T05:18:13.000Z,1024.8
2023-05-05T05:19:13.000Z,1024.79
2023-05-05T05:20:14.000Z,1024.77
2023-05-05T05:21:14.000Z,1024.84
2023-05-05T05:22:14.000Z,1024.82
2023-05-05T05:23:14.000Z,1024.81
2023-05-05T05:24:15.000Z,1024.77
2023-05-05T05:25:15.000Z,1024.83
2023-05-05T05:26:15.000Z,1024.8
2023-05-05T05:27:15.000Z,1024.82
2023-05-05T05:28:16.000Z,1024.81
2023-05-05T05:29:16.000Z,1024.76
2023-05-05T05:30:16.000Z,1024.77
2023-05-05T05:31:16.000Z,1024.67
2023-05-05T05:32:17.000Z,1024.7
2023-05-05T05:33:17.000Z,1024.72
2023-05-05T05:34:17.000Z,1024.69
2023-05-05T05:35:17.000Z,1024.67
2023-05-05T05:36:18.000Z,1024.68
2023-05-05T05:37:18.000Z,1024.72
2023-05-05T05:38:18.000Z,1024.72
2023-05-05T05:39:19.000Z,1024.71
2023-05-05T05:40:19.000Z,1024.75
2023-05-05T05:41:19.000Z,1024.72
2023-05-05T05:42:19.000Z,1024.76
2023-05-05T05:43:20.000Z,1024.73
2023-05-05T05:44:20.000Z,1024.78
2023-05-05T05:45:20.000Z,1024.78
2023-05-05T05:46:20.000Z,1024.77
2023-05-05T05:47:21.000Z,1024.77
2023-05-05T05:48:21.000Z,1024.8
2023-05-05T05:49:21.000Z,1024.81
2023-05-05T05:50:21.000Z,1024.77
2023-05-05T05:51:22.000Z,1024.76
2023-05-05T05:52:22.000Z,1024.72
2023-05-05T05:53:22.000Z,1024.77
2023-05-05T05:54:23.000Z,1024.74
2023-05-05T05:55:23.000Z,1024.73
2023-05-05T05:56:23.000Z,1024.75
2023-05-05T05:57:23.000Z,1024.75
2023-05-05T05:58:24.000Z,1024.77
2023-05-05T05:59:24.000Z,1024.79
2023-05-05T06:00:24.000Z,1024.84
2023-05-05T06:01:25.000Z,1024.82
2023-05-05T06:02:25.000Z,1024.81
2023-05-05T06:03:25.000Z,1024.82
2023-05-05T06:04:25.000Z,1024.84
2023-05-05T06:05:26.000Z,1024.84
2023-05-05T06:06:26.000Z,1024.84
2023-05-05T06:07:26.000Z,1024.84
2023-05-05T06:08:26.000Z,1024.84
2023-05-05T06:09:27.000Z,1024.82
2023-05-05T06:10:27.000Z,1024.82
2023-05-05T06:11:27.000Z,1024.86
2023-05-05T06:12:27.000Z,1024.87
2023-05-05T06:13:28.000Z,1024.9
2023-05-05T06:14:28.000Z,1024.87
2023-05-05T06:15:28.000Z,1024.87
2023-05-05T06:16:28.000Z,1024.87
2023-05-05T06:17:29.000Z,1024.9
2023-05-05T06:18:29.000Z,1024.86
2023-05-05T06:19:29.000Z,1024.85
2023-05-05T06:20:29.000Z,1024.83
2023-05-05T06:21:30.000Z,1024.87
2023-05-05T06:22:30.000Z,1024.85
2023-05-05T06:23:30.000Z,1024.84
2023-05-05T06:24:31.000Z,1024.83
2023-05-05T06:25:31.000Z,1024.81
2023-05-05T06:26:31.000Z,1024.82
2023-05-05T06:27:31.000Z,1024.84
2023-05-05T06:28:32.000Z,1024.82
2023-05-05T06:29:32.000Z,1024.8
2023-05-05T06:30:32.000Z,1024.76
2023-05-05T06:31:32.000Z,1024.79
2023-05-05T06:32:33.000Z,1024.79
2023-05-05T06:33:33.000Z,1024.83
2023-05-05T06:34:33.000Z,1024.82
2023-05-05T06:35:33.000Z,1024.82
2023-05-05T06:36:34.000Z,1024.85
2023-05-05T06:37:34.000Z,1024.86
2023-05-05T06:38:34.000Z,1024.89
2023-05-05T06:39:34.000Z,1024.88
2023-05-05T06:40:35.000Z,1024.85
2023-05-05T06:41:35.000Z,1024.84
2023-05-05T06:42:35.000Z,1024.86
2023-05-05T06:43:36.000Z,1024.88
2023-05-05T06:44:36.000Z,1024.87
2023-05-05T06:45:36.000Z,1024.83
2023-05-05T06:46:36.000Z,1024.9
2023-05-05T06:47:36.000Z,1024.85
2023-05-05T06:48:37.000Z,1024.84
2023-05-05T06:49:37.000Z,1024.87
2023-05-05T06:50:37.000Z,1024.88
2023-05-05T06:51:38.000Z,1024.89
2023-05-05T06:52:38.000Z,1024.84
2023-05-05T06:53:38.000Z,1024.86
2023-05-05T06:54:38.000Z,1024.84
2023-05-05T06:55:38.000Z,1024.84
2023-05-05T06:56:39.000Z,1024.85
2023-05-05T06:57:39.000Z,1024.87
2023-05-05T06:58:39.000Z,1024.9
2023-05-05T06:59:39.000Z,1024.89
2023-05-05T07:00:40.000Z,1024.89
2023-05-05T07:01:40.000Z,1024.89
2023-05-05T07:02:40.000Z,1024.89
2023-05-05T07:03:41.000Z,1024.88
2023-05-05T07:04:41.000Z,1024.87
2023-05-05T07:05:41.000Z,1024.84
2023-05-05T07:06:41.000Z,1024.86
2023-05-05T07:07:42.000Z,1024.82
2023-05-05T07:08:42.000Z,1024.86
2023-05-05T07:09:42.000Z,1024.84
2023-05-05T07:10:42.000Z,1024.9
2023-05-05T07:11:43.000Z,1024.82
2023-05-05T07:12:43.000Z,1024.81
2023-05-05T07:13:43.000Z,1024.85
2023-05-05T07:14:44.000Z,1024.83
2023-05-05T07:15:44.000Z,1024.82
2023-05-05T07:16:44.000Z,1024.77
2023-05-05T07:17:44.000Z,1024.76
2023-05-05T07:18:45.000Z,1024.74
2023-05-05T07:19:45.000Z,1024.74
2023-05-05T07:20:45.000Z,1024.71
2023-05-05T07:21:45.000Z,1024.72
2023-05-05T07:22:46.000Z,1024.69
2023-05-05T07:23:46.000Z,1024.71
2023-05-05T07:24:46.000Z,1024.7
2023-05-05T07:25:46.000Z,1024.74
2023-05-05T07:26:47.000Z,1024.76
2023-05-05T07:27:47.000Z,1024.74
2023-05-05T07:28:47.000Z,1024.74
2023-05-05T07:29:47.000Z,1024.75
2023-05-05T07:30:48.000Z,1024.74
2023-05-05T07:31:48.000Z,1024.76
2023-05-05T07:32:48.000Z,1024.72
2023-05-05T07:33:48.000Z,1024.71
2023-05-05T07:34:49.000Z,1024.79
2023-05-05T07:35:49.000Z,1024.82
2023-05-05T07:36:49.000Z,1024.82
2023-05-05T07:37:49.000Z,1024.86
2023-05-05T07:38:50.000Z,1024.87
2023-05-05T07:39:50.000Z,1024.85
2023-05-05T07:40:50.000Z,1024.82
2023-05-05T07:41:50.000Z,1024.81
2023-05-05T07:42:51.000Z,1024.8
2023-05-05T07:43:51.000Z,1024.78
2023-05-05T07:44:51.000Z,1024.84
2023-05-05T07:45:51.000Z,1024.82
2023-05-05T07:46:52.000Z,1024.8
2023-05-05T07:47:52.000Z,1024.8
2023-05-05T07:48:52.000Z,1024.87
2023-05-05T07:49:52.000Z,1024.86
2023-05-05T07:50:53.000Z,1024.81
2023-05-05T07:51:53.000Z,1024.79
2023-05-05T07:52:53.000Z,1024.79
2023-05-05T07:53:53.000Z,1024.74
2023-05-05T07:54:54.000Z,1024.71
2023-05-05T07:55:54.000Z,1024.77
2023-05-05T07:56:54.000Z,1024.71
2023-05-05T07:57:54.000Z,1024.73
2023-05-05T07:58:55.000Z,1024.74
2023-05-05T07:59:55.000Z,1024.73
2023-05-05T08:00:55.000Z,1024.76
2023-05-05T08:01:55.000Z,1024.78
2023-05-05T08:02:56.000Z,1024.76
2023-05-05T08:03:56.000Z,1024.73
2023-05-05T08:04:56.000Z,1024.73
2023-05-05T08:05:56.000Z,1024.74
2023-05-05T08:06:57.000Z,1024.73
2023-05-05T08:07:57.000Z,1024.74
2023-05-05T08:08:57.000Z,1024.76
2023-05-05T08:09:58.000Z,1024.73
2023-05-05T08:10:58.000Z,1024.72
2023-05-05T08:11:58.000Z,1024.71
2023-05-05T08:12:58.000Z,1024.74
2023-05-05T08:13:59.000Z,1024.72
2023-05-05T08:14:59.000Z,1024.72
2023-05-05T08:15:59.000Z,1024.7
2023-05-05T08:16:59.000Z,1024.72
2023-05-05T08:18:00.000Z,1024.72
2023-05-05T08:19:00.000Z,1024.71
2023-05-05T08:20:00.000Z,1024.74
2023-05-05T08:21:01.000Z,1024.71
2023-05-05T08:22:01.000Z,1024.7
2023-05-05T08:23:01.000Z,1024.71
2023-05-05T08:24:01.000Z,1024.72
2023-05-05T08:25:02.000Z,1024.73
2023-05-05T08:26:02.000Z,1024.74
2023-05-05T08:27:02.000Z,1024.78
2023-05-05T08:28:02.000Z,1024.75
2023-05-05T08:29:03.000Z,1024.73
2023-05-05T08:30:03.000Z,1024.74
2023-05-05T08:31:03.000Z,1024.77
2023-05-05T08:32:03.000Z,1024.73
2023-05-05T08:33:04.000Z,1024.67
2023-05-05T08:34:04.000Z,1024.7
2023-05-05T08:35:04.000Z,1024.68
2023-05-05T08:36:04.000Z,1024.7
2023-05-05T08:37:05.000Z,1024.68
2023-05-05T08:38:05.000Z,1024.68
2023-05-05T08:39:05.000Z,1024.7
2023-05-05T08:40:05.000Z,1024.71
2023-05-05T08:41:06.000Z,1024.64
2023-05-05T08:42:06.000Z,1024.68
2023-05-05T08:43:06.000Z,1024.65
2023-05-05T08:44:06.000Z,1024.7
2023-05-05T08:45:07.000Z,1024.7
2023-05-05T08:46:07.000Z,1024.76
2023-05-05T08:47:07.000Z,1024.79
2023-05-05T08:48:08.000Z,1024.77
2023-05-05T08:49:08.000Z,1024.77
2023-05-05T08:50:08.000Z,1024.75
2023-05-05T08:51:08.000Z,1024.73
2023-05-05T08:52:09.000Z,1024.74
2023-05-05T08:53:09.000Z,1024.75
2023-05-05T08:54:09.000Z,1024.72
2023-05-05T08:55:09.000Z,1024.72
2023-05-05T08:56:10.000Z,1024.68
2023-05-05T08:57:10.000Z,1024.69
2023-05-05T08:58:10.000Z,1024.66
2023-05-05T08:59:10.000Z,1024.69
2023-05-05T09:00:11.000Z,1024.65
2023-05-05T09:01:11.000Z,1024.66
2023-05-05T09:02:11.000Z,1024.66
2023-05-05T09:03:11.000Z,1024.59
2023-05-05T09:04:12.000Z,1024.63
2023-05-05T09:05:12.000Z,1024.67
2023-05-05T09:06:12.000Z,1024.7
2023-05-05T09:07:12.000Z,1024.68
2023-05-05T09:08:13.000Z,1024.66
2023-05-05T09:09:13.000Z,1024.68
2023-05-05T09:10:13.000Z,1024.7
2023-05-05T09:11:14.000Z,1024.66
2023-05-05T09:12:14.000Z,1024.67
2023-05-05T09:13:14.000Z,1024.66
2023-05-05T09:14:14.000Z,1024.64
2023-05-05T09:15:15.000Z,1024.65
2023-05-05T09:16:15.000Z,1024.67
2023-05-05T09:17:15.000Z,1024.64
2023-05-05T09:18:15.000Z,1024.61
2023-05-05T09:19:16.000Z,1024.6
2023-05-05T09:20:16.000Z,1024.6
2023-05-05T09:21:16.000Z,1024.64
2023-05-05T09:22:17.000Z,1024.65
2023-05-05T09:23:17.000Z,1024.65
2023-05-05T09:24:17.000Z,1024.64
2023-05-05T09:25:17.000Z,1024.65
2023-05-05T09:26:18.000Z,1024.66
2023-05-05T09:27:18.000Z,1024.68
2023-05-05T09:28:18.000Z,1024.74
2023-05-05T09:29:18.000Z,1024.66
2023-05-05T09:30:19.000Z,1024.66
2023-05-05T09:31:19.000Z,1024.62
2023-05-05T09:32:19.000Z,1024.57
2023-05-05T09:33:19.000Z,1024.57
2023-05-05T09:34:20.000Z,1024.57
2023-05-05T09:35:20.000Z,1024.55
2023-05-05T09:36:20.000Z,1024.57
2023-05-05T09:37:20.000Z,1024.54
2023-05-05T09:38:21.000Z,1024.53
2023-05-05T09:39:21.000Z,1024.53
2023-05-05T09:40:21.000Z,1024.53
2023-05-05T09:41:21.000Z,1024.59
2023-05-05T09:42:22.000Z,1024.58
2023-05-05T09:43:22.000Z,1024.55
2023-05-05T09:44:22.000Z,1024.54
2023-05-05T09:45:23.000Z,1024.56
2023-05-05T09:46:23.000Z,1024.51
2023-05-05T09:47:23.000Z,1024.5
2023-05-05T09:48:23.000Z,1024.52
2023-05-05T09:49:24.000Z,1024.54
2023-05-05T09:50:24.000Z,1024.48
2023-05-05T09:51:24.000Z,1024.5
2023-05-05T09:52:24.000Z,1024.5
2023-05-05T09:53:25.000Z,1024.47
2023-05-05T09:54:25.000Z,1024.5
2023-05-05T09:55:25.000Z,1024.54
2023-05-05T09:56:26.000Z,1024.53
2023-05-05T09:57:26.000Z,1024.54
2023-05-05T09:58:26.000Z,1024.51
2023-05-05T09:59:26.000Z,1024.5
2023-05-05T10:00:27.000Z,1024.47
2023-05-05T10:01:27.000Z,1024.51
2023-05-05T10:02:27.000Z,1024.48
2023-05-05T10:03:27.000Z,1024.46
2023-05-05T10:04:28.000Z,1024.47
2023-05-05T10:05:28.000Z,1024.47
2023-05-05T10:06:28.000Z,1024.45
2023-05-05T10:07:28.000Z,1024.49
2023-05-05T10:08:29.000Z,1024.5
2023-05-05T10:09:29.000Z,1024.4
2023-05-05T10:10:29.000Z,1024.46
2023-05-05T10:11:30.000Z,1024.42
2023-05-05T10:12:30.000Z,1024.41
2023-05-05T10:13:30.000Z,1024.42
2023-05-05T10:14:30.000Z,1024.38
2023-05-05T10:15:31.000Z,1024.35
2023-05-05T10:16:31.000Z,1024.34
2023-05-05T10:17:31.000Z,1024.35
2023-05-05T10:18:31.000Z,1024.28
2023-05-05T10:19:32.000Z,1024.29
2023-05-05T10:20:32.000Z,1024.33
2023-05-05T10:21:32.000Z,1024.3
2023-05-05T10:22:32.000Z,1024.31
2023-05-05T10:23:33.000Z,1024.29
2023-05-05T10:24:33.000Z,1024.25
2023-05-05T10:25:33.000Z,1024.23
2023-05-05T10:26:33.000Z,1024.25
2023-05-05T10:27:34.000Z,1024.18
2023-05-05T10:28:34.000Z,1024.2
2023-05-05T10:29:34.000Z,1024.16
2023-05-05T10:30:34.000Z,1024.12
2023-05-05T10:31:35.000Z,1024.1
2023-05-05T10:32:35.000Z,1024.09
2023-05-05T10:33:35.000Z,1024.04
2023-05-05T10:34:35.000Z,1024.01
2023-05-05T10:35:36.000Z,1023.99
2023-05-05T10:36:36.000Z,1023.99
2023-05-05T10:37:36.000Z,1023.99
2023-05-05T10:38:36.000Z,1023.98
2023-05-05T10:39:37.000Z,1023.92
2023-05-05T10:40:37.000Z,1024.01
2023-05-05T10:41:37.000Z,1023.96
2023-05-05T10:42:37.000Z,1023.96
2023-05-05T10:43:38.000Z,1023.88
2023-05-05T10:44:38.000Z,1023.9
2023-05-05T10:45:38.000Z,1023.9
2023-05-05T10:46:39.000Z,1023.94
2023-05-05T10:47:39.000Z,1023.87
2023-05-05T10:48:39.000Z,1023.89
2023-05-05T10:49:39.000Z,1023.89
2023-05-05T10:50:40.000Z,1023.88
2023-05-05T10:51:40.000Z,1023.9
2023-05-05T10:52:40.000Z,1023.85
2023-05-05T10:53:40.000Z,1023.88
2023-05-05T10:54:41.000Z,1023.85
2023-05-05T10:55:41.000Z,1023.89
2023-05-05T10:56:41.000Z,1023.88
2023-05-05T10:57:41.000Z,1023.85
2023-05-05T10:58:42.000Z,1023.86
2023-05-05T10:59:42.000Z,1023.8
2023-05-05T11:00:42.000Z,1023.82
2023-05-05T11:01:42.000Z,1023.81
2023-05-05T11:02:43.000Z,1023.82
2023-05-05T11:03:43.000Z,1023.83
2023-05-05T11:04:43.000Z,1023.79
2023-05-05T11:05:43.000Z,1023.77
2023-05-05T11:06:44.000Z,1023.78
2023-05-05T11:07:44.000Z,1023.78
2023-05-05T11:08:44.000Z,1023.7
2023-05-05T11:09:44.000Z,1023.65
2023-05-05T11:10:45.000Z,1023.63
2023-05-05T11:11:45.000Z,1023.61
2023-05-05T11:12:45.000Z,1023.61
2023-05-05T11:13:45.000Z,1023.59
2023-05-05T11:14:46.000Z,1023.63
2023-05-05T11:15:46.000Z,1023.6
2023-05-05T11:16:46.000Z,1023.63
2023-05-05T11:17:46.000Z,1023.6
2023-05-05T11:18:47.000Z,1023.57
2023-05-05T11:19:47.000Z,1023.57
2023-05-05T11:20:47.000Z,1023.55
2023-05-05T11:21:47.000Z,1023.53
2023-05-05T11:22:48.000Z,1023.52
2023-05-05T11:23:48.000Z,1023.48
2023-05-05T11:24:48.000Z,1023.5
2023-05-05T11:25:48.000Z,1023.52
2023-05-05T11:26:49.000Z,1023.52
2023-05-05T11:27:49.000Z,1023.52
2023-05-05T11:28:49.000Z,1023.49
2023-05-05T11:29:50.000Z,1023.46
2023-05-05T11:30:50.000Z,1023.43
2023-05-05T11:31:50.000Z,1023.44
2023-05-05T11:32:50.000Z,1023.43
2023-05-05T11:33:51.000Z,1023.45
2023-05-05T11:34:51.000Z,1023.44
2023-05-05T11:35:51.000Z,1023.42
2023-05-05T11:36:51.000Z,1023.45
2023-05-05T11:37:52.000Z,1023.4
2023-05-05T11:38:52.000Z,1023.4
2023-05-05T11:39:52.000Z,1023.39
2023-05-05T11:40:52.000Z,1023.39
2023-05-05T11:41:53.000Z,1023.36
2023-05-05T11:42:53.000Z,1023.35
2023-05-05T11:43:53.000Z,1023.28
2023-05-05T11:44:53.000Z,1023.3
2023-05-05T11:45:54.000Z,1023.25
2023-05-05T11:46:54.000Z,1023.26
2023-05-05T11:47:54.000Z,1023.24
2023-05-05T11:48:54.000Z,1023.26
2023-05-05T11:49:55.000Z,1023.26
2023-05-05T11:50:55.000Z,1023.22
2023-05-05T11:51:55.000Z,1023.2
2023-05-05T11:52:55.000Z,1023.2
2023-05-05T11:53:56.000Z,1023.24
2023-05-05T11:54:56.000Z,1023.22
2023-05-05T11:55:56.000Z,1023.24
2023-05-05T11:56:56.000Z,1023.23
2023-05-05T11:57:57.000Z,1023.16
2023-05-05T11:58:57.000Z,1023.21
2023-05-05T11:59:57.000Z,1023.23
2023-05-05T12:00:57.000Z,1023.25
2023-05-05T12:01:58.000Z,1023.26
2023-05-05T12:02:58.000Z,1023.23
2023-05-05T12:03:58.000Z,1023.29
2023-05-05T12:04:58.000Z,1023.28
2023-05-05T12:05:59.000Z,1023.31
2023-05-05T12:06:59.000Z,1023.26
2023-05-05T12:07:59.000Z,1023.31
2023-05-05T12:08:59.000Z,1023.25
2023-05-05T12:10:00.000Z,1023.27
2023-05-05T12:11:00.000Z,1023.27
2023-05-05T12:12:00.000Z,1023.23